Strona główna
METAR-TAF:

METAR-TAF

Lotnisko :

Port lotniczy Seymour

Baltra, Galapagos, Ekwador

Szerokość geograficzna: 00-27-14S, Długość geograficzna: 090-15-57W, wysokość: 63 m

Aktualna obserwacja pogody

Raport powstał 11 minut temu, godzina 19:00 UTC
Wiatr 9 kt od północno-północny wschód
Temperatura 28°C
Wilgotność 74%
Ciśnienie 1012 hPa
Widzialność 10 km lub więcej
Rozproszone chmury na wysokości 2000 ft
Rozproszone chmury na wysokości 10000 ft

METAR: SEGS 201900Z 03009KT 9999 SCT020 SCT100 28/23 Q1012 A2989

czas: 13:11 (19:11 UTC)


TAF: brakujący

Obserwacja i prognoza pogody dla ponad 4000 lotnisk (raport METAR i TAF).

Dostępne stacje oznaczono żółtymi i czerwonymi punktami na mapie.

Najedź kursorem aby zobaczyć nazwę stacji.

Kliknij aby zobaczyć obserwacje i prognozy pogody.

Aby zmienić mapę: kliknij na zielony przycisk z czarnym krzyżykiem, aby powiększyć; na zielony przycisk z myślnikiem, aby pomniejszyć; na zielone strzałki, aby przejść do map sąsiednich.


METAR-TAF: